Time;durP1;ratioP1;P1;durP2;ratioP2;P2;SDS_P1;SDS_P2;PMS_P1;PMS_P2;Temp;Humidity;BMP_temperature;BMP_pressure;BME280_temperature;BME280_humidity;BME280_pressure;Samples;Min_cycle;Max_cycle;Signal;HPM_P1;HPM_P2
2021/03/30 00:00:42;;;;;;;18.95;7.28;;;13.50;54.40;;;;;;4958403;28;20101;-65
2021/03/30 00:03:08;;;;;;;20.23;7.10;;;13.50;54.70;;;;;;4956443;28;20038;-64
2021/03/30 00:05:36;;;;;;;20.40;7.18;;;13.40;54.80;;;;;;4950215;28;20038;-64
2021/03/30 00:08:01;;;;;;;22.52;7.55;;;13.40;55.10;;;;;;4960817;28;20189;-64
2021/03/30 00:10:35;;;;;;;24.67;6.78;;;13.30;55.20;;;;;;4964858;28;21207;-65
2021/03/30 00:13:00;;;;;;;20.38;6.95;;;13.30;55.20;;;;;;4969315;28;20038;-63
2021/03/30 00:15:26;;;;;;;20.90;6.57;;;13.20;55.10;;;;;;4959033;28;20104;-64
2021/03/30 00:17:54;;;;;;;25.08;7.45;;;13.20;55.20;;;;;;4961768;28;20556;-64
2021/03/30 00:20:19;;;;;;;21.30;7.68;;;13.20;55.30;;;;;;4961272;28;20034;-64
2021/03/30 00:22:47;;;;;;;20.30;7.93;;;13.10;55.30;;;;;;4955574;28;20070;-65
2021/03/30 00:25:15;;;;;;;21.42;7.80;;;13.10;55.40;;;;;;4958938;28;20108;-64
2021/03/30 00:27:41;;;;;;;29.15;8.23;;;13.00;55.50;;;;;;4950197;28;21554;-65
2021/03/30 00:30:09;;;;;;;24.10;8.15;;;13.00;55.50;;;;;;4960255;28;20054;-63
2021/03/30 00:32:40;;;;;;;21.88;8.00;;;13.00;55.70;;;;;;4966792;28;23908;-64
2021/03/30 00:35:07;;;;;;;23.33;7.32;;;13.00;55.80;;;;;;4953968;28;20080;-64
2021/03/30 00:37:36;;;;;;;23.50;7.53;;;12.90;55.70;;;;;;4952557;28;20045;-65
2021/03/30 00:40:05;;;;;;;23.20;7.70;;;12.90;55.80;;;;;;4954049;28;20046;-64
2021/03/30 00:42:31;;;;;;;18.20;7.88;;;12.80;55.80;;;;;;4961598;28;20409;-65
2021/03/30 00:45:00;;;;;;;19.75;7.30;;;12.80;55.90;;;;;;4956516;28;20049;-64
2021/03/30 00:47:29;;;;;;;17.60;8.18;;;12.70;55.90;;;;;;4958643;28;20077;-64
2021/03/30 00:49:55;;;;;;;18.95;7.68;;;12.70;56.00;;;;;;4945658;28;20146;-63
2021/03/30 00:52:24;;;;;;;20.40;8.55;;;12.70;56.20;;;;;;4957352;28;20034;-64
2021/03/30 00:54:50;;;;;;;32.22;9.68;;;12.60;56.40;;;;;;4963822;28;20767;-64
2021/03/30 00:57:20;;;;;;;22.23;8.55;;;12.60;56.60;;;;;;4968983;28;20928;-63
2021/03/30 00:59:46;;;;;;;22.25;8.07;;;12.60;56.80;;;;;;4965403;28;20049;-63
2021/03/30 01:02:15;;;;;;;31.30;10.15;;;12.70;56.90;;;;;;4954588;28;20451;-63
2021/03/30 01:04:40;;;;;;;20.70;8.73;;;12.70;56.80;;;;;;4970673;28;20049;-63
2021/03/30 01:07:09;;;;;;;23.80;8.65;;;12.70;56.80;;;;;;4958219;28;20031;-62
2021/03/30 01:09:47;;;;;;;24.38;8.15;;;12.70;56.70;;;;;;4976147;28;20045;-63
2021/03/30 01:12:46;;;;;;;28.38;8.05;;;12.60;56.60;;;;;;4976238;28;20039;-63
2021/03/30 01:15:29;;;;;;;23.60;8.63;;;12.60;56.60;;;;;;4965198;28;20042;-62
2021/03/30 01:18:06;;;;;;;24.15;9.23;;;12.50;56.60;;;;;;4954540;28;20030;-62
2021/03/30 01:21:08;;;;;;;19.42;9.93;;;12.50;57.40;;;;;;4982680;28;20042;-63
2021/03/30 01:23:47;;;;;;;24.60;10.60;;;12.50;57.00;;;;;;4971130;28;20038;-63
2021/03/30 01:26:24;;;;;;;35.58;10.20;;;12.40;57.30;;;;;;4968270;28;20042;-63
2021/03/30 01:29:14;;;;;;;29.88;10.43;;;12.40;57.60;;;;;;4969151;28;20045;-63
2021/03/30 01:31:43;;;;;;;30.50;10.68;;;12.40;57.70;;;;;;4969779;28;20088;-62
2021/03/30 01:34:15;;;;;;;18.63;8.98;;;12.40;57.80;;;;;;4969858;28;20415;-63
2021/03/30 01:36:43;;;;;;;20.45;9.57;;;12.50;57.80;;;;;;4964887;28;20035;-63
2021/03/30 01:39:11;;;;;;;28.75;10.05;;;12.50;57.70;;;;;;4974998;28;20161;-63
2021/03/30 01:41:41;;;;;;;21.67;10.27;;;12.50;57.60;;;;;;4964003;28;20133;-63
2021/03/30 01:44:08;;;;;;;29.40;10.25;;;12.40;57.60;;;;;;4960084;28;20094;-62
2021/03/30 01:46:36;;;;;;;28.08;11.00;;;12.40;57.60;;;;;;4964158;28;20041;-62
2021/03/30 01:49:03;;;;;;;30.90;11.20;;;12.40;57.50;;;;;;4965694;28;20053;-62
2021/03/30 01:51:32;;;;;;;32.88;10.75;;;12.40;57.50;;;;;;4975635;28;20038;-62
2021/03/30 01:54:00;;;;;;;24.00;10.13;;;12.40;57.60;;;;;;4969935;28;20030;-63
2021/03/30 01:56:32;;;;;;;22.70;10.57;;;12.30;57.60;;;;;;4959998;28;20412;-63
2021/03/30 01:59:02;;;;;;;26.27;9.90;;;12.30;57.70;;;;;;4965593;28;20041;-63
2021/03/30 02:01:31;;;;;;;22.77;11.18;;;12.30;57.80;;;;;;4980022;28;20097;-62
2021/03/30 02:04:01;;;;;;;31.48;12.05;;;12.30;57.90;;;;;;4972643;28;20050;-62
2021/03/30 02:06:28;;;;;;;41.13;14.98;;;12.20;58.00;;;;;;4958997;28;20041;-63
2021/03/30 02:09:00;;;;;;;36.53;14.02;;;12.30;58.20;;;;;;4958898;28;20405;-63
2021/03/30 02:11:33;;;;;;;29.55;14.57;;;12.30;58.40;;;;;;4964386;28;20046;-63
2021/03/30 02:14:01;;;;;;;33.22;13.35;;;12.30;58.40;;;;;;4962474;28;20030;-62
2021/03/30 02:16:34;;;;;;;23.35;13.18;;;12.30;58.50;;;;;;4966863;28;20045;-64
2021/03/30 02:19:18;;;;;;;31.50;13.88;;;12.30;58.60;;;;;;4968512;28;20034;-63
2021/03/30 02:21:51;;;;;;;26.13;12.75;;;12.40;58.60;;;;;;4971866;28;20401;-62
2021/03/30 02:24:21;;;;;;;34.38;13.35;;;12.40;58.60;;;;;;4965001;28;20042;-62
2021/03/30 02:26:51;;;;;;;33.33;13.88;;;12.40;58.70;;;;;;4962346;28;20136;-62
2021/03/30 02:29:23;;;;;;;29.42;12.80;;;12.40;58.70;;;;;;4973576;28;20042;-63
2021/03/30 02:31:53;;;;;;;31.90;13.35;;;12.50;58.70;;;;;;4974128;28;20100;-63
2021/03/30 02:34:23;;;;;;;36.55;13.70;;;12.50;58.70;;;;;;4980245;28;20042;-62
2021/03/30 02:36:55;;;;;;;27.85;12.52;;;12.50;58.50;;;;;;4970848;28;20038;-62
2021/03/30 02:39:23;;;;;;;25.92;12.95;;;12.50;58.50;;;;;;4981342;28;20095;-62
2021/03/30 02:41:49;;;;;;;30.33;12.98;;;12.50;58.50;;;;;;4976577;28;20041;-62
2021/03/30 02:44:18;;;;;;;27.67;13.60;;;12.50;58.60;;;;;;4976070;28;20042;-63
2021/03/30 02:46:47;;;;;;;26.95;12.52;;;12.50;58.70;;;;;;4965899;28;20030;-63
2021/03/30 02:49:24;;;;;;;27.80;13.77;;;12.50;58.70;;;;;;4977335;28;20039;-62
2021/03/30 02:51:53;;;;;;;26.35;12.40;;;12.50;58.60;;;;;;4972334;28;20134;-62
2021/03/30 02:54:20;;;;;;;28.45;12.25;;;12.50;58.60;;;;;;4974134;28;20085;-62
2021/03/30 02:56:47;;;;;;;21.38;12.35;;;12.50;58.50;;;;;;4964103;28;20097;-62
2021/03/30 02:59:14;;;;;;;26.88;11.75;;;12.50;58.30;;;;;;4964094;28;20475;-63
2021/03/30 03:01:40;;;;;;;35.55;11.98;;;12.50;58.10;;;;;;4970654;28;20439;-62
2021/03/30 03:04:08;;;;;;;24.55;13.63;;;12.50;58.10;;;;;;4995480;28;20106;-62
2021/03/30 03:06:36;;;;;;;24.88;12.52;;;12.50;58.10;;;;;;4969694;28;20314;-62
2021/03/30 03:09:05;;;;;;;23.85;12.75;;;12.40;58.20;;;;;;4975501;28;20516;-62
2021/03/30 03:11:36;;;;;;;31.27;13.15;;;12.50;58.40;;;;;;4967878;28;20088;-62
2021/03/30 03:14:06;;;;;;;26.35;12.10;;;12.50;58.30;;;;;;4980085;28;20073;-62
2021/03/30 03:16:35;;;;;;;25.50;11.40;;;12.50;58.20;;;;;;4955865;28;20104;-64
2021/03/30 03:19:06;;;;;;;19.58;10.60;;;12.50;58.00;;;;;;4968961;28;20049;-63
2021/03/30 03:21:37;;;;;;;22.33;12.10;;;12.40;57.80;;;;;;4979148;28;20466;-63
2021/03/30 03:24:07;;;;;;;22.77;12.18;;;12.40;57.70;;;;;;4958553;28;20049;-64
2021/03/30 03:26:38;;;;;;;34.28;12.65;;;12.30;57.80;;;;;;4954801;28;20027;-62
2021/03/30 03:29:13;;;;;;;27.13;12.98;;;12.30;57.90;;;;;;4966786;28;20078;-64
2021/03/30 03:31:39;;;;;;;22.73;12.77;;;12.30;58.00;;;;;;4965533;28;20058;-62
2021/03/30 03:34:07;;;;;;;24.35;12.05;;;12.30;58.10;;;;;;4960401;28;20142;-62
2021/03/30 03:36:39;;;;;;;27.95;11.80;;;12.30;58.10;;;;;;4951544;28;20034;-62
2021/03/30 03:39:06;;;;;;;28.70;12.88;;;12.20;58.00;;;;;;4963677;28;20508;-62
2021/03/30 03:41:32;;;;;;;27.83;12.57;;;12.20;58.00;;;;;;4965799;28;20038;-63
2021/03/30 03:43:58;;;;;;;27.60;11.98;;;12.20;58.00;;;;;;4964900;28;20042;-62
2021/03/30 03:46:23;;;;;;;21.67;12.15;;;12.20;58.00;;;;;;4964274;28;20517;-63
2021/03/30 03:48:49;;;;;;;22.77;11.13;;;12.30;58.00;;;;;;4976666;28;20081;-62
2021/03/30 03:51:15;;;;;;;20.08;11.43;;;12.30;57.90;;;;;;4964212;28;20452;-63
2021/03/30 03:53:42;;;;;;;30.88;10.98;;;12.20;57.70;;;;;;4965304;28;20046;-61
2021/03/30 03:56:13;;;;;;;22.23;11.73;;;12.20;57.50;;;;;;4954935;28;20416;-63
2021/03/30 03:58:46;;;;;;;28.00;11.68;;;12.20;57.50;;;;;;4971751;28;20089;-63
2021/03/30 04:01:20;;;;;;;20.05;11.48;;;12.20;57.50;;;;;;4964188;28;20062;-63
2021/03/30 04:03:53;;;;;;;27.00;12.45;;;12.10;57.40;;;;;;4965197;28;20034;-63
2021/03/30 04:06:22;;;;;;;23.35;11.68;;;12.10;57.30;;;;;;4960922;28;20053;-63
2021/03/30 04:08:52;;;;;;;24.45;11.60;;;12.10;57.40;;;;;;4965152;28;20042;-63
2021/03/30 04:11:20;;;;;;;22.60;10.25;;;12.10;57.30;;;;;;4982920;28;20038;-64
2021/03/30 04:13:46;;;;;;;23.85;11.55;;;12.00;57.20;;;;;;4972882;28;20570;-62
2021/03/30 04:16:13;;;;;;;25.10;12.73;;;12.00;57.20;;;;;;4960315;28;20084;-64
2021/03/30 04:18:40;;;;;;;26.02;12.25;;;12.00;57.30;;;;;;4963797;28;20598;-62
2021/03/30 04:21:26;;;;;;;28.83;12.48;;;11.90;57.50;;;;;;4963761;28;20404;-63
2021/03/30 04:23:52;;;;;;;30.73;12.50;;;11.90;57.50;;;;;;4969991;28;20168;-61
2021/03/30 04:26:19;;;;;;;26.83;11.25;;;11.90;57.50;;;;;;4949957;28;20820;-63
2021/03/30 04:28:44;;;;;;;25.45;11.35;;;11.90;57.40;;;;;;4963409;28;20034;-62
2021/03/30 04:31:14;;;;;;;23.15;11.77;;;11.90;57.40;;;;;;4957478;28;20155;-62
2021/03/30 04:33:40;;;;;;;21.75;11.98;;;11.90;57.40;;;;;;4970150;28;20054;-64
2021/03/30 04:36:06;;;;;;;24.30;12.15;;;11.80;57.30;;;;;;4959901;28;20436;-63
2021/03/30 04:38:34;;;;;;;22.58;11.57;;;11.90;57.40;;;;;;4959214;28;20041;-63
2021/03/30 04:41:02;;;;;;;22.90;11.75;;;11.90;57.40;;;;;;4965725;28;20034;-63
2021/03/30 04:43:27;;;;;;;28.65;13.05;;;11.90;57.40;;;;;;4970310;28;20090;-62
2021/03/30 04:45:53;;;;;;;24.17;11.30;;;11.90;57.30;;;;;;4960148;28;20253;-62
2021/03/30 04:48:19;;;;;;;23.52;11.85;;;11.90;57.30;;;;;;4963907;28;20050;-63
2021/03/30 04:50:45;;;;;;;22.02;11.02;;;11.90;57.20;;;;;;4951932;28;20463;-63
2021/03/30 04:53:11;;;;;;;24.33;11.25;;;11.90;57.10;;;;;;4962456;28;20058;-62
2021/03/30 04:55:42;;;;;;;25.05;11.95;;;11.90;57.00;;;;;;4953444;28;20042;-61
2021/03/30 04:58:07;;;;;;;17.15;10.55;;;11.90;57.00;;;;;;4962324;28;20498;-63
2021/03/30 05:00:33;;;;;;;20.23;11.43;;;11.80;56.90;;;;;;4961616;28;20038;-61
2021/03/30 05:02:58;;;;;;;25.10;11.77;;;11.80;56.80;;;;;;4963348;28;20084;-61
2021/03/30 05:05:26;;;;;;;23.80;11.25;;;11.80;56.90;;;;;;4944194;28;20652;-62
2021/03/30 05:07:52;;;;;;;22.30;11.20;;;11.80;56.90;;;;;;4963700;28;20038;-63
2021/03/30 05:10:22;;;;;;;22.15;12.10;;;11.80;56.70;;;;;;4959034;28;20296;-63
2021/03/30 05:12:48;;;;;;;26.65;12.23;;;11.80;56.80;;;;;;4970271;28;20407;-62
2021/03/30 05:15:14;;;;;;;23.77;12.48;;;11.80;56.70;;;;;;4963303;28;20554;-62
2021/03/30 05:17:39;;;;;;;20.15;11.82;;;11.80;56.70;;;;;;4962877;28;20519;-62
2021/03/30 05:20:06;;;;;;;23.50;12.23;;;11.80;56.80;;;;;;4993892;23;20045;-61
2021/03/30 05:22:32;;;;;;;28.35;11.88;;;11.80;56.80;;;;;;4984533;28;20052;-62
2021/03/30 05:25:00;;;;;;;25.45;10.95;;;11.90;56.70;;;;;;4965029;28;20373;-62
2021/03/30 05:27:29;;;;;;;26.17;11.52;;;11.80;56.50;;;;;;4961518;28;20034;-62
2021/03/30 05:29:54;;;;;;;25.13;10.95;;;11.90;56.50;;;;;;4966462;28;20515;-62
2021/03/30 05:32:20;;;;;;;25.63;11.25;;;11.90;56.40;;;;;;4964952;28;20121;-62
2021/03/30 05:34:47;;;;;;;19.17;11.63;;;11.90;56.40;;;;;;4956304;28;20042;-62
2021/03/30 05:37:16;;;;;;;18.27;10.73;;;12.00;56.30;;;;;;4956425;28;20034;-63
2021/03/30 05:39:42;;;;;;;20.02;9.98;;;12.00;56.20;;;;;;4956059;28;20267;-63
2021/03/30 05:42:10;;;;;;;21.98;10.77;;;12.00;56.10;;;;;;4963480;28;20511;-63
2021/03/30 05:44:36;;;;;;;23.80;10.23;;;12.00;56.10;;;;;;4963671;28;20776;-62
2021/03/30 05:49:41;;;;;;;26.02;11.27;;;12.00;56.00;;;;;;4961482;28;23856;-61
2021/03/30 05:52:17;;;;;;;21.88;10.63;;;12.00;56.00;;;;;;4958481;28;20057;-60
2021/03/30 05:54:48;;;;;;;19.42;11.63;;;12.10;55.90;;;;;;4967380;28;20489;-61
2021/03/30 05:57:17;;;;;;;24.15;11.05;;;12.10;55.80;;;;;;4975545;28;20049;-61
2021/03/30 05:59:45;;;;;;;24.98;11.02;;;12.20;55.70;;;;;;4959362;28;20038;-61
2021/03/30 06:02:28;;;;;;;19.30;10.90;;;12.20;55.70;;;;;;4964597;28;20038;-62
2021/03/30 06:04:57;;;;;;;18.65;10.55;;;12.30;55.70;;;;;;4959372;28;20039;-61
2021/03/30 06:07:23;;;;;;;26.33;10.80;;;12.30;55.60;;;;;;4964907;28;20034;-60
2021/03/30 06:09:49;;;;;;;23.98;10.88;;;12.40;55.60;;;;;;4953707;28;20689;-61
2021/03/30 06:12:16;;;;;;;23.17;11.27;;;12.40;55.60;;;;;;4956543;28;20800;-61
2021/03/30 06:14:47;;;;;;;24.67;10.65;;;12.50;55.40;;;;;;4961256;28;20563;-61
2021/03/30 06:17:14;;;;;;;21.27;11.13;;;12.50;55.20;;;;;;4956904;28;21013;-60
2021/03/30 06:19:56;;;;;;;20.95;10.38;;;12.60;55.10;;;;;;4961093;28;20074;-60
2021/03/30 06:22:25;;;;;;;22.02;10.27;;;12.70;55.10;;;;;;4956182;28;20038;-61
2021/03/30 06:24:54;;;;;;;25.35;11.70;;;12.80;55.10;;;;;;4960857;28;20046;-61
2021/03/30 06:27:25;;;;;;;22.30;11.10;;;12.80;55.10;;;;;;4953607;28;20046;-60
2021/03/30 06:29:52;;;;;;;18.98;11.07;;;12.90;55.10;;;;;;4953383;28;20045;-61
2021/03/30 06:32:23;;;;;;;22.42;10.95;;;12.90;55.70;;;;;;4965840;28;20734;-61
2021/03/30 06:34:54;;;;;;;25.33;11.50;;;13.00;55.20;;;;;;4963451;28;20047;-61
2021/03/30 06:37:35;;;;;;;19.08;10.48;;;13.10;55.10;;;;;;4958549;28;20042;-61
2021/03/30 06:40:08;;;;;;;16.92;10.38;;;13.20;55.10;;;;;;4959923;28;20046;-62
2021/03/30 06:42:39;;;;;;;22.98;11.43;;;13.20;55.00;;;;;;4960000;28;20525;-61
2021/03/30 06:45:23;;;;;;;24.85;10.80;;;13.30;54.90;;;;;;4955308;28;20089;-61
2021/03/30 06:47:53;;;;;;;20.15;11.05;;;13.40;54.90;;;;;;4956253;28;20445;-61
2021/03/30 06:50:29;;;;;;;21.35;11.00;;;13.50;54.80;;;;;;4960763;28;20053;-61
2021/03/30 06:52:56;;;;;;;20.10;10.13;;;13.60;54.60;;;;;;4960563;28;20047;-61
2021/03/30 06:55:26;;;;;;;18.63;10.10;;;13.60;54.40;;;;;;4957567;28;20058;-61
2021/03/30 06:57:59;;;;;;;21.30;9.98;;;13.70;54.30;;;;;;4961198;28;20566;-60
2021/03/30 07:00:34;;;;;;;17.50;9.57;;;13.80;54.10;;;;;;4962988;28;20122;-61
2021/03/30 07:03:02;;;;;;;27.83;9.77;;;13.90;54.00;;;;;;4963550;28;20190;-61
2021/03/30 07:05:30;;;;;;;20.00;10.48;;;14.00;53.50;;;;;;4961610;28;20043;-60
2021/03/30 07:07:58;;;;;;;19.08;10.07;;;14.10;53.60;;;;;;4963822;28;20046;-61
2021/03/30 07:10:25;;;;;;;19.42;9.90;;;14.20;53.50;;;;;;4959593;28;20169;-61
2021/03/30 07:12:52;;;;;;;19.25;9.43;;;14.30;53.40;;;;;;4955001;28;20193;-61
2021/03/30 07:15:20;;;;;;;20.27;9.75;;;14.40;54.00;;;;;;4952926;28;20046;-61
2021/03/30 07:18:08;;;;;;;20.05;9.32;;;14.50;53.00;;;;;;4969730;28;20073;-61
2021/03/30 07:20:41;;;;;;;19.08;10.30;;;14.60;52.90;;;;;;4993812;28;20477;-61
2021/03/30 07:23:12;;;;;;;20.55;10.32;;;14.70;52.70;;;;;;4979009;28;20050;-61
2021/03/30 07:25:48;;;;;;;18.58;9.80;;;14.80;52.70;;;;;;4962873;28;20050;-61
2021/03/30 07:28:21;;;;;;;19.75;9.68;;;14.90;52.50;;;;;;4973150;28;20034;-61
2021/03/30 07:30:53;;;;;;;21.13;10.10;;;15.00;52.40;;;;;;4969380;28;20173;-61
2021/03/30 07:33:37;;;;;;;15.60;8.70;;;15.10;53.00;;;;;;4970414;28;20046;-61
2021/03/30 07:36:04;;;;;;;20.10;8.75;;;15.10;52.20;;;;;;4966964;28;20053;-61
2021/03/30 07:38:37;;;;;;;17.60;9.57;;;15.30;52.10;;;;;;4960066;28;20043;-61
2021/03/30 07:41:03;;;;;;;17.17;8.85;;;15.40;52.10;;;;;;4964244;28;20038;-61
2021/03/30 07:43:30;;;;;;;20.60;9.15;;;15.50;51.80;;;;;;4955905;28;20610;-61
2021/03/30 07:45:59;;;;;;;21.52;9.60;;;15.60;51.60;;;;;;4975185;28;20133;-61
2021/03/30 07:48:26;;;;;;;22.50;10.02;;;15.70;51.40;;;;;;4956022;28;20042;-61
2021/03/30 07:53:54;;;;;;;26.67;10.00;;;15.90;51.40;;;;;;4975720;28;20045;-61
2021/03/30 07:56:25;;;;;;;17.42;9.38;;;16.00;51.50;;;;;;4958534;28;20078;-61
2021/03/30 07:58:55;;;;;;;19.73;10.32;;;16.10;51.60;;;;;;4974709;28;20164;-61
2021/03/30 08:01:25;;;;;;;16.88;9.27;;;16.20;52.10;;;;;;4966128;28;20133;-61
2021/03/30 08:03:56;;;;;;;23.30;8.52;;;16.30;51.20;;;;;;4978108;28;20034;-61
2021/03/30 08:06:24;;;;;;;14.07;8.27;;;16.40;50.90;;;;;;4970421;28;20070;-61
2021/03/30 08:09:08;;;;;;;20.90;9.73;;;16.50;50.50;;;;;;4960884;28;20046;-61
2021/03/30 08:11:43;;;;;;;20.85;8.95;;;16.70;50.70;;;;;;4975228;28;20103;-63
2021/03/30 08:14:23;;;;;;;20.00;8.40;;;17.00;50.40;;;;;;4964434;28;20117;-63
2021/03/30 08:16:52;;;;;;;15.25;8.13;;;18.30;51.10;;;;;;4958469;28;20519;-64
2021/03/30 08:19:19;;;;;;;20.42;7.47;;;20.40;49.60;;;;;;4967562;28;20038;-65
2021/03/30 08:21:56;;;;;;;12.68;7.35;;;;;;;;;;4975586;28;20389;-64
2021/03/30 08:24:24;;;;;;;17.88;7.18;;;22.60;45.30;;;;;;4979582;28;20035;-65
2021/03/30 08:26:50;;;;;;;16.60;7.65;;;26.40;37.40;;;;;;4964551;28;20484;-64
2021/03/30 08:29:22;;;;;;;13.23;7.25;;;27.80;34.70;;;;;;4973570;28;20073;-65
2021/03/30 08:31:53;;;;;;;22.75;7.50;;;;;;;;;;4972024;28;20027;-64
2021/03/30 08:34:27;;;;;;;17.08;7.25;;;28.90;32.00;;;;;;4971736;28;20090;-65
2021/03/30 08:36:58;;;;;;;12.82;6.38;;;30.70;29.20;;;;;;4965370;28;20100;-64
2021/03/30 08:39:24;;;;;;;13.00;6.32;;;31.40;27.80;;;;;;4968324;28;20035;-64
2021/03/30 08:41:52;;;;;;;13.80;5.85;;;32.10;26.90;;;;;;4976317;28;20420;-62
2021/03/30 08:44:29;;;;;;;15.45;6.97;;;32.80;26.30;;;;;;4973750;28;20199;-63
2021/03/30 08:46:56;;;;;;;14.50;6.57;;;33.30;25.30;;;;;;4968295;28;20515;-63
2021/03/30 08:49:33;;;;;;;15.30;6.68;;;33.90;24.60;;;;;;4974595;28;20134;-63
2021/03/30 08:52:07;;;;;;;17.45;6.07;;;34.40;24.30;;;;;;4968920;28;20069;-63
2021/03/30 08:54:43;;;;;;;11.23;5.68;;;34.80;23.90;;;;;;4972087;28;20120;-63
2021/03/30 08:57:12;;;;;;;13.27;6.18;;;35.10;23.60;;;;;;4966286;28;20100;-63
2021/03/30 08:59:39;;;;;;;15.68;6.40;;;35.40;23.10;;;;;;4970235;28;20117;-63
2021/03/30 09:02:12;;;;;;;13.00;6.03;;;35.70;22.90;;;;;;4971154;28;20122;-63
2021/03/30 09:04:42;;;;;;;11.82;5.82;;;35.90;22.60;;;;;;4974150;28;20574;-63
2021/03/30 09:07:08;;;;;;;12.90;5.95;;;36.00;22.80;;;;;;4966107;28;20045;-63
2021/03/30 09:09:35;;;;;;;17.25;6.25;;;36.30;22.60;;;;;;4969787;28;20038;-63
2021/03/30 09:12:02;;;;;;;13.60;6.45;;;;;;;;;;4973504;28;20620;-63
2021/03/30 09:14:28;;;;;;;16.85;6.20;;;;;;;;;;4966738;28;20066;-63
2021/03/30 09:17:03;;;;;;;14.98;5.70;;;;;;;;;;4964239;28;20042;-63
2021/03/30 09:19:32;;;;;;;10.13;5.63;;;;;;;;;;4970747;28;20034;-64
2021/03/30 09:22:03;;;;;;;13.65;5.78;;;;;;;;;;4964656;28;20038;-63
2021/03/30 09:27:07;;;;;;;11.93;5.32;;;;;;;;;;4961830;28;20038;-64
2021/03/30 09:29:37;;;;;;;10.18;5.25;;;;;;;;;;4970337;28;20039;-63
2021/03/30 09:32:04;;;;;;;14.25;5.35;;;;;;;;;;4976407;28;20030;-63
2021/03/30 09:34:30;;;;;;;11.60;5.35;;;;;;;;;;4976401;28;20459;-64
2021/03/30 09:36:58;;;;;;;12.15;5.45;;;;;;;;;;4950547;28;20035;-63
2021/03/30 09:39:25;;;;;;;14.00;6.05;;;;;;;;;;4967244;28;20780;-64
2021/03/30 09:41:53;;;;;;;10.77;5.20;;;;;;;;;;4947437;28;20030;-64
2021/03/30 09:44:20;;;;;;;13.05;5.82;;;;;;;;;;4951680;28;20049;-64
2021/03/30 09:46:47;;;;;;;12.25;5.20;;;;;;;;;;4950614;28;20065;-64
2021/03/30 09:49:14;;;;;;;18.05;6.05;;;;;;;;;;4957418;28;20045;-64
2021/03/30 09:51:40;;;;;;;10.25;5.55;;;;;;;;;;4957212;28;20058;-63
2021/03/30 09:54:24;;;;;;;13.50;6.13;;;;;;;;;;4954435;28;20179;-65
2021/03/30 09:57:13;;;;;;;10.68;5.93;;;;;;;;;;4942809;28;20579;-66
2021/03/30 09:59:46;;;;;;;10.73;5.97;;;;;;;;;;4931438;28;20045;-66
2021/03/30 10:02:15;;;;;;;14.50;5.68;;;;;;;;;;4955124;28;20038;-65
2021/03/30 10:04:43;;;;;;;11.60;5.78;;;;;;;;;;4945873;28;20038;-65
2021/03/30 10:07:14;;;;;;;12.05;5.88;;;;;;;;;;4949385;28;20467;-65
2021/03/30 10:10:03;;;;;;;10.93;6.57;;;;;;;;;;4947060;28;20042;-65
2021/03/30 10:12:54;;;;;;;12.65;5.88;;;;;;;;;;4949799;28;20169;-66
2021/03/30 10:15:50;;;;;;;8.77;5.50;;;;;;;;;;4949330;28;20170;-66
2021/03/30 10:18:22;;;;;;;14.10;4.78;;;;;;;;;;4934315;28;20082;-66
2021/03/30 10:20:52;;;;;;;11.40;5.43;;;;;;;;;;4948039;28;20654;-67
2021/03/30 10:23:37;;;;;;;15.02;5.18;;;;;;;;;;4946231;28;20039;-65
2021/03/30 10:26:23;;;;;;;8.95;5.47;;;;;;;;;;4945961;28;20122;-66
2021/03/30 10:29:11;;;;;;;10.73;5.20;;;;;;;;;;4957478;28;20093;-64
2021/03/30 10:31:55;;;;;;;12.15;5.03;;;;;;;;;;4933569;28;20038;-63
2021/03/30 10:34:21;;;;;;;8.13;5.10;;;;;;;;;;4935465;28;20075;-64
2021/03/30 10:36:48;;;;;;;11.27;5.25;;;;;;;;;;4939934;28;20041;-63
2021/03/30 10:39:14;;;;;;;10.95;5.60;;;;;;;;;;4943739;28;20081;-63
2021/03/30 10:41:42;;;;;;;9.95;4.90;;;;;;;;;;4937997;28;20643;-64
2021/03/30 10:44:09;;;;;;;11.63;4.85;;;;;;;;;;4949584;28;20034;-64
2021/03/30 10:46:41;;;;;;;9.32;5.38;;;;;;;;;;4945605;28;20042;-64
2021/03/30 10:49:09;;;;;;;11.18;4.65;;;;;;;;;;4942530;28;20098;-64
2021/03/30 10:51:38;;;;;;;9.30;4.70;;;;;;;;;;4957975;28;20030;-64
2021/03/30 10:54:06;;;;;;;13.13;4.82;;;;;;;;;;4964290;28;20125;-64
2021/03/30 10:56:32;;;;;;;12.35;4.47;;;;;;;;;;4947012;28;20125;-64
2021/03/30 10:58:58;;;;;;;11.25;4.97;;;;;;;;;;4951522;28;20040;-64
2021/03/30 11:01:25;;;;;;;9.40;4.22;;;;;;;;;;4960935;28;20038;-64
2021/03/30 11:03:51;;;;;;;8.00;5.32;;;;;;;;;;4964254;28;20041;-65
2021/03/30 11:06:20;;;;;;;11.20;5.25;;;;;;;;;;4953049;28;20157;-65
2021/03/30 11:08:46;;;;;;;12.75;5.18;;;;;;;;;;4960568;28;20034;-64
2021/03/30 11:11:12;;;;;;;12.70;5.45;;;;;;;;;;4956406;28;20043;-64
2021/03/30 11:13:38;;;;;;;14.00;5.28;;;;;;;;;;4962792;28;20104;-65
2021/03/30 11:16:05;;;;;;;9.10;4.78;;;;;;;;;;4947813;28;20073;-64
2021/03/30 11:18:31;;;;;;;13.50;6.20;;;;;;;;;;4959495;28;20381;-65
2021/03/30 11:20:57;;;;;;;12.32;4.80;;;;;;;;;;4951015;28;20042;-65
2021/03/30 11:23:23;;;;;;;11.73;4.90;;;;;;;;;;4962854;28;20086;-65
2021/03/30 11:25:49;;;;;;;11.20;4.90;;;;;;;;;;4959155;28;20096;-65
2021/03/30 11:28:15;;;;;;;9.85;4.70;;;;;;;;;;4970539;28;20129;-65
2021/03/30 11:30:46;;;;;;;10.07;4.20;;;36.70;21.90;;;;;;4963802;28;20073;-64
2021/03/30 11:33:23;;;;;;;9.90;4.72;;;39.10;18.70;;;;;;4960659;28;20276;-64
2021/03/30 11:35:54;;;;;;;11.68;4.90;;;;;;;;;;4954354;28;20420;-64
2021/03/30 11:38:20;;;;;;;12.02;4.88;;;;;;;;;;4962964;28;20539;-64
2021/03/30 11:40:46;;;;;;;15.93;5.32;;;39.00;18.70;;;;;;4954150;28;20042;-64
2021/03/30 11:43:12;;;;;;;9.57;4.85;;;;;;;;;;4967614;28;20049;-64
2021/03/30 11:45:39;;;;;;;10.75;4.53;;;;;;;;;;4964238;28;20428;-64
2021/03/30 11:48:05;;;;;;;10.88;4.38;;;;;;;;;;4962418;28;20042;-64
2021/03/30 11:50:34;;;;;;;11.98;5.00;;;;;;;;;;4965154;28;20046;-64
2021/03/30 11:53:00;;;;;;;14.13;5.85;;;;;;;;;;4968780;28;20039;-65
2021/03/30 11:55:29;;;;;;;13.00;5.95;;;;;;;;;;4960160;28;20038;-65
2021/03/30 11:57:55;;;;;;;12.23;5.28;;;;;;;;;;4962541;28;20543;-64
2021/03/30 12:00:21;;;;;;;10.50;5.63;;;;;;;;;;4965363;28;20038;-64
2021/03/30 12:02:50;;;;;;;12.35;5.60;;;38.40;18.20;;;;;;4964316;28;20037;-64
2021/03/30 12:05:18;;;;;;;14.20;5.85;;;34.90;20.70;;;;;;4954483;28;23238;-65
2021/03/30 12:07:46;;;;;;;12.25;6.22;;;34.40;21.30;;;;;;4957860;28;20052;-65
2021/03/30 12:10:12;;;;;;;14.57;5.80;;;33.80;21.30;;;;;;4959781;28;20140;-64
2021/03/30 12:12:38;;;;;;;11.18;6.05;;;33.20;22.40;;;;;;4969357;28;20038;-64
2021/03/30 12:15:06;;;;;;;13.60;6.53;;;32.70;22.20;;;;;;4966432;28;20046;-64
2021/03/30 12:17:34;;;;;;;9.85;5.65;;;32.30;22.50;;;;;;4967533;28;20141;-65
2021/03/30 12:20:00;;;;;;;14.45;6.30;;;32.10;23.10;;;;;;4960614;28;20344;-64
2021/03/30 12:22:27;;;;;;;12.32;5.95;;;31.80;23.00;;;;;;4966878;28;20715;-64
2021/03/30 12:24:55;;;;;;;13.13;6.25;;;31.70;23.90;;;;;;4966675;28;20061;-64
2021/03/30 12:27:20;;;;;;;11.52;6.28;;;31.40;24.10;;;;;;4960308;28;20579;-64
2021/03/30 12:29:46;;;;;;;17.77;6.85;;;31.20;23.60;;;;;;4964503;28;20035;-63
2021/03/30 12:32:12;;;;;;;15.48;6.53;;;30.90;23.60;;;;;;4954457;28;20264;-63
2021/03/30 12:34:43;;;;;;;13.70;6.55;;;30.60;23.90;;;;;;4976122;23;20054;-66
2021/03/30 12:37:12;;;;;;;13.77;6.80;;;30.40;24.70;;;;;;4975748;28;20041;-65
2021/03/30 12:39:38;;;;;;;17.48;6.68;;;30.40;23.70;;;;;;4980645;28;20038;-64
2021/03/30 12:42:08;;;;;;;12.90;6.07;;;30.30;23.80;;;;;;4964956;28;20039;-64
2021/03/30 12:44:34;;;;;;;15.73;6.88;;;30.20;24.30;;;;;;4952857;28;20031;-64
2021/03/30 12:47:02;;;;;;;14.30;7.75;;;30.00;24.30;;;;;;4944225;23;20030;-64
2021/03/30 12:49:28;;;;;;;13.02;6.93;;;30.00;23.90;;;;;;4968369;28;20047;-64
2021/03/30 12:51:54;;;;;;;14.02;7.43;;;29.90;24.60;;;;;;4968635;28;20097;-64
2021/03/30 12:54:21;;;;;;;16.17;6.88;;;29.80;24.90;;;;;;4969937;28;20500;-63
2021/03/30 12:56:47;;;;;;;17.92;7.53;;;29.80;24.90;;;;;;4958421;28;20504;-62
2021/03/30 12:59:12;;;;;;;17.88;7.75;;;29.80;25.30;;;;;;4949351;28;20093;-62
2021/03/30 13:01:38;;;;;;;13.95;7.75;;;29.80;24.50;;;;;;4960269;28;20411;-63
2021/03/30 13:04:04;;;;;;;19.00;7.28;;;29.70;24.80;;;;;;4953888;28;20134;-62
2021/03/30 13:06:30;;;;;;;23.67;7.85;;;29.70;24.60;;;;;;4949935;28;20047;-61
2021/03/30 13:08:55;;;;;;;16.02;7.72;;;29.60;24.60;;;;;;4960989;28;20035;-62
2021/03/30 13:11:23;;;;;;;15.90;7.60;;;29.40;24.80;;;;;;4945737;28;20053;-62
2021/03/30 13:13:51;;;;;;;14.50;7.55;;;29.20;25.50;;;;;;4967343;28;20125;-63